createdAt,value
2023-01-31T00:00:57.819Z,67.30
2023-01-31T00:03:24.366Z,67.21
2023-01-31T00:05:50.952Z,67.60
2023-01-31T00:08:18.432Z,66.66
2023-01-31T00:10:44.917Z,67.06
2023-01-31T00:13:11.424Z,66.30
2023-01-31T00:15:38.333Z,66.67
2023-01-31T00:18:06.202Z,64.82
2023-01-31T00:20:32.667Z,65.26
2023-01-31T00:22:59.099Z,65.08
2023-01-31T00:25:25.592Z,64.71
2023-01-31T00:27:52.092Z,63.96
2023-01-31T00:30:18.551Z,64.00
2023-01-31T00:32:45.620Z,62.57
2023-01-31T00:35:12.151Z,62.28
2023-01-31T00:37:38.586Z,61.46
2023-01-31T00:40:05.257Z,61.92
2023-01-31T00:42:31.689Z,61.99
2023-01-31T00:44:58.149Z,60.99
2023-01-31T00:47:24.666Z,61.64
2023-01-31T00:49:51.118Z,61.92
2023-01-31T00:52:17.941Z,62.04
2023-01-31T00:54:44.430Z,62.20
2023-01-31T00:57:11.139Z,62.29
2023-01-31T00:59:37.586Z,63.41
2023-01-31T01:02:05.746Z,63.49
2023-01-31T01:04:32.223Z,64.97
2023-01-31T01:06:58.683Z,64.47
2023-01-31T01:09:25.501Z,66.00
2023-01-31T01:11:51.955Z,66.07
2023-01-31T01:14:18.584Z,66.30
2023-01-31T01:16:45.038Z,66.75
2023-01-31T01:19:19.313Z,67.19
2023-01-31T01:21:46.909Z,67.94
2023-01-31T01:24:17.663Z,68.50
2023-01-31T01:26:44.761Z,67.88
2023-01-31T01:29:12.328Z,66.73
2023-01-31T01:31:39.654Z,66.92
2023-01-31T01:34:12.325Z,68.15
2023-01-31T01:36:39.027Z,68.10
2023-01-31T01:39:06.735Z,67.89
2023-01-31T01:41:36.310Z,67.38
2023-01-31T01:44:25.507Z,65.43
2023-01-31T01:46:52.244Z,66.30
2023-01-31T01:49:22.759Z,67.41
2023-01-31T01:51:51.176Z,64.37
2023-01-31T01:54:21.024Z,65.37
2023-01-31T01:56:48.967Z,65.88
2023-01-31T01:59:22.440Z,66.58
2023-01-31T02:01:50.292Z,66.83
2023-01-31T02:04:22.509Z,66.49
2023-01-31T02:06:49.467Z,63.54
2023-01-31T02:09:23.398Z,64.08
2023-01-31T02:11:50.036Z,65.67
2023-01-31T02:14:20.448Z,66.10
2023-01-31T02:16:46.963Z,65.98
2023-01-31T02:19:24.634Z,65.81
2023-01-31T02:22:03.435Z,65.89
2023-01-31T02:24:48.513Z,66.40
2023-01-31T02:27:41.176Z,66.50
2023-01-31T02:30:24.065Z,66.12
2023-01-31T02:33:09.320Z,66.71
2023-01-31T02:35:57.176Z,66.93
2023-01-31T02:38:30.814Z,67.20
2023-01-31T02:41:15.322Z,66.55
2023-01-31T02:44:04.255Z,66.77
2023-01-31T02:46:41.782Z,67.50
2023-01-31T02:49:34.453Z,67.87
2023-01-31T02:52:17.731Z,68.13
2023-01-31T02:55:18.478Z,68.34
2023-01-31T02:57:45.939Z,68.54
2023-01-31T03:00:13.594Z,68.39
2023-01-31T03:02:40.194Z,67.38
2023-01-31T03:05:06.911Z,68.52
2023-01-31T03:07:36.493Z,68.04
2023-01-31T03:10:03.575Z,68.73
2023-01-31T03:12:42.981Z,68.42
2023-01-31T03:15:27.593Z,67.83
2023-01-31T03:17:54.073Z,67.72
2023-01-31T03:20:24.379Z,67.41
2023-01-31T03:22:54.500Z,66.70
2023-01-31T03:25:24.205Z,65.59
2023-01-31T03:27:57.222Z,65.69
2023-01-31T03:30:33.151Z,66.26
2023-01-31T03:33:03.592Z,66.19
2023-01-31T03:35:31.990Z,66.86
2023-01-31T03:37:59.394Z,66.34
2023-01-31T03:40:27.242Z,65.78
2023-01-31T03:43:14.948Z,65.76
2023-01-31T03:45:58.661Z,65.80
2023-01-31T03:48:31.290Z,65.64
2023-01-31T03:51:03.669Z,65.81
2023-01-31T03:53:30.360Z,66.00
2023-01-31T03:56:07.753Z,65.92
2023-01-31T03:58:38.639Z,65.26
2023-01-31T04:01:08.171Z,65.34
2023-01-31T04:03:34.783Z,65.77
2023-01-31T04:06:01.395Z,65.85
2023-01-31T04:08:30.895Z,67.32
2023-01-31T04:11:03.661Z,66.70
2023-01-31T04:13:30.139Z,66.44
2023-01-31T04:15:56.891Z,67.26
2023-01-31T04:18:23.380Z,68.14
2023-01-31T04:20:49.789Z,68.13
2023-01-31T04:23:16.231Z,68.51
2023-01-31T04:25:42.667Z,68.31
2023-01-31T04:28:09.094Z,70.15
2023-01-31T04:30:35.537Z,66.50
2023-01-31T04:33:02.131Z,67.58
2023-01-31T04:35:28.613Z,67.85
2023-01-31T04:37:55.026Z,70.26
2023-01-31T04:40:21.518Z,70.30
2023-01-31T04:42:50.235Z,71.72
2023-01-31T04:45:16.736Z,71.85
2023-01-31T04:47:43.189Z,71.57
2023-01-31T04:50:09.964Z,71.62
2023-01-31T04:52:37.016Z,72.94
2023-01-31T04:55:03.513Z,72.81
2023-01-31T04:57:30.188Z,70.37
2023-01-31T04:59:56.682Z,71.00
2023-01-31T05:02:23.392Z,68.14
2023-01-31T05:04:50.046Z,70.43
2023-01-31T05:07:16.504Z,72.87
2023-01-31T05:09:44.058Z,76.60
2023-01-31T05:12:10.526Z,76.29
2023-01-31T05:14:37.061Z,77.12
2023-01-31T05:17:03.598Z,77.14
2023-01-31T05:19:30.041Z,76.37
2023-01-31T05:21:59.159Z,76.89
2023-01-31T05:24:27.320Z,76.98
2023-01-31T05:26:58.359Z,78.76
2023-01-31T05:29:26.029Z,80.14
2023-01-31T05:31:56.797Z,80.53
2023-01-31T05:34:25.231Z,81.91
2023-01-31T05:36:52.377Z,81.24
2023-01-31T05:39:18.899Z,81.58
2023-01-31T05:41:45.690Z,82.17
2023-01-31T05:44:12.228Z,82.40
2023-01-31T05:46:38.764Z,81.64
2023-01-31T05:49:05.388Z,80.10
2023-01-31T05:51:32.416Z,81.67
2023-01-31T05:53:58.951Z,82.02
2023-01-31T05:56:25.440Z,81.96
2023-01-31T05:58:52.056Z,81.81
2023-01-31T06:01:22.025Z,82.40
2023-01-31T06:03:48.621Z,82.50
2023-01-31T06:06:15.289Z,82.72
2023-01-31T06:08:44.448Z,82.78
2023-01-31T06:11:11.702Z,83.77
2023-01-31T06:13:38.631Z,83.55
2023-01-31T06:16:05.673Z,83.62
2023-01-31T06:18:32.159Z,83.94
2023-01-31T06:20:58.836Z,83.14
2023-01-31T06:23:25.266Z,82.72
2023-01-31T06:25:52.741Z,84.15
2023-01-31T06:28:19.338Z,84.84
2023-01-31T06:30:46.136Z,85.02
2023-01-31T06:33:13.088Z,85.11
2023-01-31T06:35:40.039Z,84.37
2023-01-31T06:38:07.123Z,84.62
2023-01-31T06:40:33.655Z,84.56
2023-01-31T06:43:00.156Z,85.77
2023-01-31T06:45:26.670Z,84.18
2023-01-31T06:47:53.142Z,77.12
2023-01-31T06:50:19.597Z,77.32
2023-01-31T06:52:46.403Z,78.94
2023-01-31T06:55:12.802Z,78.16
2023-01-31T06:57:45.893Z,75.77
2023-01-31T07:00:12.575Z,75.43
2023-01-31T07:02:38.989Z,76.75
2023-01-31T07:05:05.768Z,76.19
2023-01-31T07:07:32.470Z,81.02
2023-01-31T07:09:58.991Z,81.66
2023-01-31T07:12:26.351Z,78.81
2023-01-31T07:14:53.083Z,78.99
2023-01-31T07:17:21.146Z,79.10
2023-01-31T07:19:47.667Z,78.15
2023-01-31T07:22:14.111Z,77.39
2023-01-31T07:24:40.595Z,76.73
2023-01-31T07:27:07.244Z,72.46
2023-01-31T07:29:33.749Z,69.71
2023-01-31T07:32:00.307Z,68.57
2023-01-31T07:34:26.822Z,65.47
2023-01-31T07:36:53.311Z,62.72
2023-01-31T07:39:19.800Z,63.22
2023-01-31T07:41:46.925Z,60.38
2023-01-31T07:44:13.679Z,58.15
2023-01-31T07:46:40.302Z,58.03
2023-01-31T07:49:07.025Z,61.45
2023-01-31T07:51:33.514Z,58.75
2023-01-31T07:54:00.023Z,58.31
2023-01-31T07:56:26.470Z,56.75
2023-01-31T07:58:52.961Z,57.92
2023-01-31T08:01:39.078Z,54.15
2023-01-31T08:04:19.892Z,54.92
2023-01-31T08:06:48.301Z,51.83
2023-01-31T08:09:14.776Z,51.26
2023-01-31T08:11:41.641Z,49.23
2023-01-31T08:14:09.522Z,49.73
2023-01-31T08:16:36.903Z,48.48
2023-01-31T08:19:03.662Z,48.53
2023-01-31T08:21:30.506Z,47.83
2023-01-31T08:23:57.011Z,51.13
2023-01-31T08:26:23.689Z,49.19
2023-01-31T08:28:51.022Z,50.48
2023-01-31T08:31:19.096Z,51.56
2023-01-31T08:33:45.599Z,54.77
2023-01-31T08:36:24.642Z,56.51
2023-01-31T08:38:51.611Z,54.75
2023-01-31T08:41:19.073Z,53.50
2023-01-31T08:43:55.947Z,51.34
2023-01-31T08:46:25.023Z,54.01
2023-01-31T08:48:51.553Z,54.50
2023-01-31T08:51:18.080Z,54.49
2023-01-31T08:53:44.957Z,53.18
2023-01-31T08:56:12.433Z,52.13
2023-01-31T08:58:40.034Z,54.69
2023-01-31T09:01:07.735Z,52.90
2023-01-31T09:03:34.230Z,51.04
2023-01-31T09:06:01.397Z,50.14
2023-01-31T09:08:28.766Z,49.54
2023-01-31T09:10:55.419Z,48.75
2023-01-31T09:13:22.633Z,47.44
2023-01-31T09:16:15.462Z,47.17
2023-01-31T09:18:42.125Z,49.61
2023-01-31T09:21:19.043Z,48.20
2023-01-31T09:23:46.003Z,48.13
2023-01-31T09:26:13.204Z,46.55
2023-01-31T09:28:42.715Z,44.83
2023-01-31T09:31:10.954Z,43.08
2023-01-31T09:33:37.518Z,43.61
2023-01-31T09:36:05.591Z,39.46
2023-01-31T09:38:32.378Z,42.10
2023-01-31T09:41:01.023Z,37.85
2023-01-31T09:43:40.010Z,36.36
2023-01-31T09:46:09.954Z,36.30
2023-01-31T09:48:37.926Z,35.51
2023-01-31T09:51:05.559Z,35.65
2023-01-31T09:53:37.291Z,37.60
2023-01-31T09:56:06.578Z,34.50
2023-01-31T09:58:42.274Z,38.00
2023-01-31T10:01:08.795Z,39.47
2023-01-31T10:03:46.937Z,40.55
2023-01-31T10:06:13.477Z,42.11
2023-01-31T10:08:51.315Z,38.82
2023-01-31T10:11:37.719Z,37.89
2023-01-31T10:14:13.780Z,38.39
2023-01-31T10:16:46.375Z,36.01
2023-01-31T10:19:17.051Z,34.74
2023-01-31T10:21:55.917Z,34.98
2023-01-31T10:24:30.267Z,32.42
2023-01-31T10:27:00.687Z,33.48
2023-01-31T10:29:32.820Z,35.15
2023-01-31T10:32:02.383Z,34.04
2023-01-31T10:34:47.614Z,34.04
2023-01-31T10:37:19.192Z,34.86
2023-01-31T10:39:50.162Z,31.34
2023-01-31T10:42:33.259Z,30.48
2023-01-31T10:45:08.874Z,31.58
2023-01-31T10:47:37.833Z,31.28
2023-01-31T10:50:15.491Z,30.89
2023-01-31T10:52:47.502Z,32.56
2023-01-31T10:55:34.053Z,32.80
2023-01-31T10:58:00.616Z,32.73
2023-01-31T11:00:28.831Z,34.03
2023-01-31T11:02:56.051Z,33.56
2023-01-31T11:05:24.048Z,32.41
2023-01-31T11:07:50.845Z,32.11
2023-01-31T11:10:22.478Z,31.25
2023-01-31T11:12:57.081Z,32.01
2023-01-31T11:15:25.359Z,33.26
2023-01-31T11:17:52.508Z,32.31
2023-01-31T11:20:22.260Z,31.23
2023-01-31T11:22:49.130Z,31.55
2023-01-31T11:25:19.448Z,29.69
2023-01-31T11:27:45.913Z,29.51
2023-01-31T11:30:18.905Z,29.46
2023-01-31T11:32:45.694Z,31.35
2023-01-31T11:35:15.201Z,30.20
2023-01-31T11:38:04.889Z,28.49
2023-01-31T11:40:35.393Z,28.86
2023-01-31T11:43:06.441Z,28.90
2023-01-31T11:45:53.187Z,30.00
2023-01-31T11:48:22.310Z,28.85
2023-01-31T11:50:51.909Z,28.33
2023-01-31T11:53:21.210Z,29.76
2023-01-31T11:55:48.813Z,30.55
2023-01-31T11:58:21.259Z,30.25
2023-01-31T12:01:02.601Z,28.47
2023-01-31T12:03:30.581Z,29.83
2023-01-31T12:06:01.751Z,27.64
2023-01-31T12:08:31.248Z,27.22
2023-01-31T12:10:58.653Z,27.40
2023-01-31T12:13:25.532Z,25.57
2023-01-31T12:15:51.984Z,26.47
2023-01-31T12:18:39.063Z,25.23
2023-01-31T12:21:08.618Z,25.37
2023-01-31T12:23:41.182Z,25.51
2023-01-31T12:26:10.379Z,25.16
2023-01-31T12:28:39.891Z,25.14
2023-01-31T12:31:06.360Z,23.84
2023-01-31T12:33:38.678Z,26.10
2023-01-31T12:36:17.498Z,25.81
2023-01-31T12:39:02.822Z,25.59
2023-01-31T12:41:29.227Z,24.85
2023-01-31T12:44:16.211Z,23.97
2023-01-31T12:46:42.764Z,25.86
2023-01-31T12:49:20.431Z,25.34
2023-01-31T12:52:00.800Z,23.72
2023-01-31T12:54:35.461Z,24.90
2023-01-31T12:57:11.185Z,24.17
2023-01-31T12:59:46.694Z,25.31
2023-01-31T13:02:16.003Z,23.95
2023-01-31T13:04:47.084Z,26.21
2023-01-31T13:07:26.856Z,24.69
2023-01-31T13:09:54.440Z,25.90
2023-01-31T13:12:25.038Z,26.35
2023-01-31T13:15:06.480Z,24.36
2023-01-31T13:17:35.018Z,24.17
2023-01-31T13:20:19.981Z,23.96
2023-01-31T13:22:47.895Z,23.49
2023-01-31T13:25:23.323Z,23.98
2023-01-31T13:27:56.883Z,24.62
2023-01-31T13:30:38.357Z,23.97
2023-01-31T13:33:23.224Z,24.57
2023-01-31T13:35:55.195Z,24.83
2023-01-31T13:38:22.142Z,23.55
2023-01-31T13:40:53.147Z,23.79
2023-01-31T13:43:20.401Z,23.75
2023-01-31T13:45:55.207Z,24.75
2023-01-31T13:48:32.846Z,23.38
2023-01-31T13:51:17.831Z,24.39
2023-01-31T13:53:49.670Z,25.17
2023-01-31T13:56:36.311Z,24.34
2023-01-31T13:59:03.109Z,25.04
2023-01-31T14:01:32.353Z,24.25
2023-01-31T14:04:14.815Z,24.25
2023-01-31T14:06:56.754Z,25.81
2023-01-31T14:09:26.063Z,26.33
2023-01-31T14:11:52.719Z,27.77
2023-01-31T14:14:20.996Z,26.44
2023-01-31T14:16:50.355Z,26.54
2023-01-31T14:19:24.134Z,27.12
2023-01-31T14:21:50.599Z,27.92
2023-01-31T14:24:19.684Z,26.56
2023-01-31T14:26:46.131Z,25.63
2023-01-31T14:29:20.499Z,27.21
2023-01-31T14:31:48.193Z,27.22
2023-01-31T14:34:25.646Z,27.05
2023-01-31T14:36:52.049Z,27.44
2023-01-31T14:39:38.123Z,27.77
2023-01-31T14:42:23.241Z,28.27
2023-01-31T14:44:49.666Z,28.79
2023-01-31T14:47:16.108Z,29.84
2023-01-31T14:50:01.367Z,29.15
2023-01-31T14:52:48.642Z,29.85
2023-01-31T14:55:34.075Z,29.58
2023-01-31T14:58:01.723Z,30.23
2023-01-31T15:00:38.598Z,28.85
2023-01-31T15:03:05.069Z,28.74
2023-01-31T15:05:31.487Z,28.01
2023-01-31T15:08:05.989Z,29.98
2023-01-31T15:10:51.391Z,28.51
2023-01-31T15:13:35.187Z,29.35
2023-01-31T15:16:15.972Z,30.34
2023-01-31T15:18:43.562Z,32.53
2023-01-31T15:21:10.793Z,32.02
2023-01-31T15:23:40.926Z,33.07
2023-01-31T15:26:08.857Z,38.12
2023-01-31T15:28:37.031Z,38.13
2023-01-31T15:31:13.626Z,40.48
2023-01-31T15:33:49.412Z,40.75
2023-01-31T15:36:20.105Z,42.89
2023-01-31T15:38:53.096Z,44.08
2023-01-31T15:41:20.175Z,46.61
2023-01-31T15:43:47.436Z,46.92
2023-01-31T15:46:19.488Z,46.13
2023-01-31T15:48:45.959Z,45.71
2023-01-31T15:51:15.804Z,46.63
2023-01-31T15:53:42.805Z,46.33
2023-01-31T15:56:21.420Z,47.18
2023-01-31T15:58:52.772Z,48.37
2023-01-31T16:01:19.381Z,48.56
2023-01-31T16:03:52.867Z,48.73
2023-01-31T16:06:25.399Z,49.17
2023-01-31T16:08:53.220Z,47.68
2023-01-31T16:11:19.891Z,48.78
2023-01-31T16:13:46.770Z,49.17
2023-01-31T16:16:16.536Z,48.77
2023-01-31T16:18:51.059Z,49.18
2023-01-31T16:21:29.493Z,50.87
2023-01-31T16:24:03.951Z,52.20
2023-01-31T16:26:35.176Z,53.26
2023-01-31T16:29:07.017Z,53.12
2023-01-31T16:31:36.510Z,53.11
2023-01-31T16:34:06.015Z,52.16
2023-01-31T16:36:34.510Z,53.08
2023-01-31T16:39:05.575Z,55.03
2023-01-31T16:41:46.593Z,53.80
2023-01-31T16:44:18.867Z,53.91
2023-01-31T16:46:46.450Z,52.55
2023-01-31T16:49:22.435Z,53.74
2023-01-31T16:51:50.011Z,55.54
2023-01-31T16:54:16.517Z,54.53
2023-01-31T16:56:43.920Z,54.73
2023-01-31T16:59:29.154Z,55.76
2023-01-31T17:02:12.863Z,57.12
2023-01-31T17:04:40.406Z,56.48
2023-01-31T17:07:08.395Z,56.90
2023-01-31T17:09:35.543Z,56.91
2023-01-31T17:12:02.177Z,56.96
2023-01-31T17:14:29.892Z,57.23
2023-01-31T17:16:56.438Z,57.46
2023-01-31T17:19:23.345Z,58.79
2023-01-31T17:21:50.286Z,57.18
2023-01-31T17:24:18.165Z,57.33
2023-01-31T17:26:45.084Z,58.12
2023-01-31T17:29:12.008Z,58.72
2023-01-31T17:31:39.347Z,59.85
2023-01-31T17:34:11.442Z,58.98
2023-01-31T17:36:37.899Z,53.14
2023-01-31T17:39:04.908Z,53.83
2023-01-31T17:41:31.352Z,53.98
2023-01-31T17:43:57.855Z,56.85
2023-01-31T17:46:24.326Z,58.05
2023-01-31T17:48:50.759Z,56.55
2023-01-31T17:51:17.234Z,57.86
2023-01-31T17:53:49.955Z,58.98
2023-01-31T17:56:17.595Z,58.10
2023-01-31T17:58:44.066Z,57.66
2023-01-31T18:01:13.767Z,57.82
2023-01-31T18:03:40.731Z,59.57
2023-01-31T18:06:08.085Z,59.28
2023-01-31T18:08:35.133Z,58.76
2023-01-31T18:11:05.361Z,58.44
2023-01-31T18:13:31.985Z,59.24
2023-01-31T18:16:08.919Z,59.35
2023-01-31T18:18:36.583Z,59.25
2023-01-31T18:21:05.363Z,60.97
2023-01-31T18:23:32.414Z,61.51
2023-01-31T18:25:58.899Z,61.51
2023-01-31T18:28:25.393Z,61.42
2023-01-31T18:30:51.887Z,60.37
2023-01-31T18:33:18.381Z,60.74
2023-01-31T18:35:44.789Z,60.16
2023-01-31T18:38:13.439Z,60.29
2023-01-31T18:40:39.948Z,58.25
2023-01-31T18:43:06.395Z,60.50
2023-01-31T18:45:32.916Z,61.66
2023-01-31T18:47:59.348Z,61.98
2023-01-31T18:50:25.780Z,60.38
2023-01-31T18:52:52.298Z,60.97
2023-01-31T18:55:19.281Z,61.34
2023-01-31T18:57:45.936Z,60.87
2023-01-31T19:00:12.672Z,61.33
2023-01-31T19:02:39.201Z,62.05
2023-01-31T19:05:05.888Z,63.39
2023-01-31T19:07:34.626Z,61.87
2023-01-31T19:10:01.196Z,61.38
2023-01-31T19:12:27.618Z,60.72
2023-01-31T19:14:56.310Z,61.68
2023-01-31T19:17:22.795Z,62.87
2023-01-31T19:19:49.381Z,62.18
2023-01-31T19:22:17.516Z,63.29
2023-01-31T19:24:44.010Z,63.76
2023-01-31T19:27:10.448Z,64.35
2023-01-31T19:29:39.807Z,64.78
2023-01-31T19:32:06.399Z,65.61
2023-01-31T19:34:33.439Z,66.58
2023-01-31T19:36:59.899Z,66.40
2023-01-31T19:39:26.367Z,65.52
2023-01-31T19:41:52.946Z,60.12
2023-01-31T19:44:20.700Z,61.60
2023-01-31T19:46:51.283Z,64.14
2023-01-31T19:49:18.125Z,63.23
2023-01-31T19:51:44.556Z,62.86
2023-01-31T19:54:15.447Z,63.21
2023-01-31T19:56:42.089Z,66.56
2023-01-31T19:59:08.630Z,65.32
2023-01-31T20:01:35.117Z,65.76
2023-01-31T20:04:01.588Z,66.66
2023-01-31T20:06:28.917Z,67.16
2023-01-31T20:08:59.304Z,67.54
2023-01-31T20:11:26.988Z,64.23
2023-01-31T20:13:54.220Z,67.20
2023-01-31T20:16:21.519Z,68.14
2023-01-31T20:18:48.251Z,67.78
2023-01-31T20:21:15.894Z,67.72
2023-01-31T20:23:42.561Z,67.13
2023-01-31T20:26:10.226Z,67.25
2023-01-31T20:28:36.821Z,67.12
2023-01-31T20:31:04.569Z,67.34
2023-01-31T20:33:31.060Z,68.36
2023-01-31T20:35:57.604Z,69.53
2023-01-31T20:38:24.070Z,68.80
2023-01-31T20:40:51.317Z,69.09
2023-01-31T20:43:18.546Z,69.06
2023-01-31T20:45:45.185Z,70.13
2023-01-31T20:48:11.677Z,71.20
2023-01-31T20:50:38.363Z,70.79
2023-01-31T20:53:04.854Z,70.54
2023-01-31T20:55:31.342Z,68.45
2023-01-31T20:57:58.508Z,70.40
2023-01-31T21:00:25.373Z,70.64
2023-01-31T21:02:51.899Z,71.83
2023-01-31T21:05:18.407Z,66.62
2023-01-31T21:07:45.333Z,70.92
2023-01-31T21:10:12.695Z,72.61
2023-01-31T21:12:39.259Z,71.45
2023-01-31T21:15:06.045Z,67.65
2023-01-31T21:17:39.856Z,70.05
2023-01-31T21:20:07.717Z,71.34
2023-01-31T21:22:34.792Z,73.05
2023-01-31T21:25:01.362Z,72.60
2023-01-31T21:27:27.904Z,72.16
2023-01-31T21:29:54.345Z,71.11
2023-01-31T21:32:20.771Z,71.28
2023-01-31T21:34:47.303Z,72.64
2023-01-31T21:37:13.783Z,72.37
2023-01-31T21:39:40.215Z,71.80
2023-01-31T21:42:15.786Z,72.36
2023-01-31T21:44:43.061Z,72.18
2023-01-31T21:47:09.657Z,72.16
2023-01-31T21:49:36.171Z,73.17
2023-01-31T21:52:02.710Z,72.54
2023-01-31T21:54:29.214Z,72.52
2023-01-31T21:56:55.711Z,73.40
2023-01-31T21:59:23.326Z,72.80
2023-01-31T22:01:51.744Z,73.69
2023-01-31T22:04:23.323Z,72.94
2023-01-31T22:06:50.795Z,72.53
2023-01-31T22:09:17.967Z,72.44
2023-01-31T22:11:45.222Z,71.39
2023-01-31T22:14:12.681Z,71.24
2023-01-31T22:16:40.154Z,71.44
2023-01-31T22:19:06.975Z,72.33
2023-01-31T22:21:35.081Z,72.93
2023-01-31T22:24:02.513Z,73.42
2023-01-31T22:26:30.353Z,72.78
2023-01-31T22:28:58.149Z,71.52
2023-01-31T22:31:24.847Z,73.01
2023-01-31T22:33:51.698Z,74.16
2023-01-31T22:36:18.718Z,73.54
2023-01-31T22:38:45.769Z,72.81
2023-01-31T22:41:13.469Z,72.59
2023-01-31T22:43:41.756Z,72.89
2023-01-31T22:46:10.487Z,73.65
2023-01-31T22:48:37.034Z,73.46
2023-01-31T22:51:05.372Z,72.84
2023-01-31T22:53:33.001Z,72.08
2023-01-31T22:56:03.391Z,71.51
2023-01-31T22:58:29.965Z,72.09
2023-01-31T23:00:56.444Z,73.68
2023-01-31T23:03:23.445Z,74.03
2023-01-31T23:05:49.935Z,75.92
2023-01-31T23:08:16.955Z,75.17
2023-01-31T23:10:43.521Z,75.52
2023-01-31T23:13:10.451Z,75.10
2023-01-31T23:15:37.472Z,74.28
2023-01-31T23:18:04.755Z,74.38
2023-01-31T23:20:31.819Z,74.44
2023-01-31T23:22:58.853Z,74.45
2023-01-31T23:25:26.830Z,73.61
2023-01-31T23:27:54.650Z,73.87
2023-01-31T23:30:21.824Z,74.07
2023-01-31T23:32:48.616Z,74.58
2023-01-31T23:35:15.086Z,74.09
2023-01-31T23:37:41.850Z,74.56
2023-01-31T23:40:08.603Z,74.68
2023-01-31T23:42:35.241Z,74.59
2023-01-31T23:45:01.736Z,75.14
2023-01-31T23:47:28.226Z,74.52
2023-01-31T23:49:54.675Z,75.20
2023-01-31T23:52:21.132Z,77.12
2023-01-31T23:54:47.703Z,76.80
2023-01-31T23:57:14.255Z,77.42
2023-01-31T23:59:40.677Z,76.67
